sensor_id;sensor_type;location;lat;lon;timestamp;pressure;altitude;pressure_sealevel;temperature;humidity
11049;BME280;5577;42.706;23.160;2022-08-03T00:01:04;94172.78;;;18.61;100.00
11049;BME280;5577;42.706;23.160;2022-08-03T00:03:48;94178.19;;;18.58;100.00
11049;BME280;5577;42.706;23.160;2022-08-03T00:06:32;94166.78;;;18.43;100.00
11049;BME280;5577;42.706;23.160;2022-08-03T00:09:17;94177.94;;;18.38;100.00
11049;BME280;5577;42.706;23.160;2022-08-03T00:12:01;94176.78;;;18.39;100.00
11049;BME280;5577;42.706;23.160;2022-08-03T00:14:45;94171.03;;;18.34;100.00
11049;BME280;5577;42.706;23.160;2022-08-03T00:17:28;94178.69;;;18.42;100.00
11049;BME280;5577;42.706;23.160;2022-08-03T00:20:12;94178.69;;;18.42;100.00
11049;BME280;5577;42.706;23.160;2022-08-03T00:22:56;94163.78;;;18.34;100.00
11049;BME280;5577;42.706;23.160;2022-08-03T00:25:41;94191.72;;;18.33;100.00
11049;BME280;5577;42.706;23.160;2022-08-03T00:28:25;94182.53;;;18.31;100.00
11049;BME280;5577;42.706;23.160;2022-08-03T00:31:10;94180.69;;;18.24;100.00
11049;BME280;5577;42.706;23.160;2022-08-03T00:33:54;94181.03;;;18.26;100.00
11049;BME280;5577;42.706;23.160;2022-08-03T00:36:38;94172.66;;;18.21;100.00
11049;BME280;5577;42.706;23.160;2022-08-03T00:39:22;94177.66;;;18.19;100.00
11049;BME280;5577;42.706;23.160;2022-08-03T00:42:06;94176.09;;;18.18;100.00
11049;BME280;5577;42.706;23.160;2022-08-03T00:44:50;94174.59;;;18.17;100.00
11049;BME280;5577;42.706;23.160;2022-08-03T00:47:34;94172.78;;;18.03;100.00
11049;BME280;5577;42.706;23.160;2022-08-03T00:50:19;94172.38;;;18.01;100.00
11049;BME280;5577;42.706;23.160;2022-08-03T00:53:06;94171.69;;;17.94;100.00
11049;BME280;5577;42.706;23.160;2022-08-03T00:55:52;94170.53;;;17.91;100.00
11049;BME280;5577;42.706;23.160;2022-08-03T00:58:36;94171.75;;;17.80;100.00
11049;BME280;5577;42.706;23.160;2022-08-03T01:01:21;94171.72;;;17.83;100.00
11049;BME280;5577;42.706;23.160;2022-08-03T01:04:04;94171.75;;;17.80;100.00
11049;BME280;5577;42.706;23.160;2022-08-03T01:12:35;94153.81;;;17.70;100.00
11049;BME280;5577;42.706;23.160;2022-08-03T01:15:24;94168.31;;;17.69;100.00
11049;BME280;5577;42.706;23.160;2022-08-03T01:21:17;94169.50;;;17.61;100.00
11049;BME280;5577;42.706;23.160;2022-08-03T01:24:05;94164.94;;;17.58;100.00
11049;BME280;5577;42.706;23.160;2022-08-03T01:27:06;94160.00;;;17.46;100.00
11049;BME280;5577;42.706;23.160;2022-08-03T01:32:41;94156.94;;;17.44;100.00
11049;BME280;5577;42.706;23.160;2022-08-03T01:35:36;94170.34;;;17.47;100.00
11049;BME280;5577;42.706;23.160;2022-08-03T01:38:31;94164.59;;;17.38;100.00
11049;BME280;5577;42.706;23.160;2022-08-03T01:41:20;94169.97;;;17.35;100.00
11049;BME280;5577;42.706;23.160;2022-08-03T01:44:08;94168.81;;;17.36;100.00
11049;BME280;5577;42.706;23.160;2022-08-03T01:46:55;94168.41;;;17.34;100.00
11049;BME280;5577;42.706;23.160;2022-08-03T01:49:43;94163.88;;;17.13;100.00
11049;BME280;5577;42.706;23.160;2022-08-03T01:52:29;94171.53;;;17.22;100.00
11049;BME280;5577;42.706;23.160;2022-08-03T01:55:17;94176.88;;;17.18;100.00
11049;BME280;5577;42.706;23.160;2022-08-03T01:58:03;94172.28;;;17.22;100.00
11049;BME280;5577;42.706;23.160;2022-08-03T02:00:49;94178.41;;;17.19;100.00
11049;BME280;5577;42.706;23.160;2022-08-03T02:03:37;94173.41;;;17.21;100.00
11049;BME280;5577;42.706;23.160;2022-08-03T02:06:21;94182.97;;;17.18;100.00
11049;BME280;5577;42.706;23.160;2022-08-03T02:09:06;94171.53;;;17.07;100.00
11049;BME280;5577;42.706;23.160;2022-08-03T02:11:51;94185.31;;;17.09;100.00
11049;BME280;5577;42.706;23.160;2022-08-03T02:14:37;94183.38;;;17.10;100.00
11049;BME280;5577;42.706;23.160;2022-08-03T02:17:23;94172.31;;;17.04;100.00
11049;BME280;5577;42.706;23.160;2022-08-03T02:20:10;94136.44;;;16.77;100.00
11049;BME280;5577;42.706;23.160;2022-08-03T02:22:54;94176.91;;;17.04;100.00
11049;BME280;5577;42.706;23.160;2022-08-03T02:25:42;94173.47;;;17.00;100.00
11049;BME280;5577;42.706;23.160;2022-08-03T02:28:34;94182.63;;;16.99;100.00
11049;BME280;5577;42.706;23.160;2022-08-03T02:31:22;94179.97;;;16.99;100.00
11049;BME280;5577;42.706;23.160;2022-08-03T02:34:11;94183.41;;;16.85;100.00
11049;BME280;5577;42.706;23.160;2022-08-03T02:36:57;94172.72;;;16.89;100.00
11049;BME280;5577;42.706;23.160;2022-08-03T02:39:43;94180.75;;;16.85;100.00
11049;BME280;5577;42.706;23.160;2022-08-03T02:42:31;94171.56;;;16.79;100.00
11049;BME280;5577;42.706;23.160;2022-08-03T02:45:15;94170.03;;;16.82;100.00
11049;BME280;5577;42.706;23.160;2022-08-03T02:48:03;94142.56;;;16.71;100.00
11049;BME280;5577;42.706;23.160;2022-08-03T02:50:50;94152.09;;;16.65;100.00
11049;BME280;5577;42.706;23.160;2022-08-03T02:53:36;94167.38;;;16.85;100.00
11049;BME280;5577;42.706;23.160;2022-08-03T02:56:21;94166.25;;;16.72;100.00
11049;BME280;5577;42.706;23.160;2022-08-03T02:59:06;94175.78;;;16.77;100.00
11049;BME280;5577;42.706;23.160;2022-08-03T03:01:52;94172.34;;;16.73;100.00
11049;BME280;5577;42.706;23.160;2022-08-03T03:04:36;94168.53;;;16.70;100.00
11049;BME280;5577;42.706;23.160;2022-08-03T03:07:21;94162.03;;;16.61;100.00
11049;BME280;5577;42.706;23.160;2022-08-03T03:10:06;94178.44;;;16.66;100.00
11049;BME280;5577;42.706;23.160;2022-08-03T03:12:54;94181.13;;;16.63;100.00
11049;BME280;5577;42.706;23.160;2022-08-03T03:15:39;94183.81;;;16.56;100.00
11049;BME280;5577;42.706;23.160;2022-08-03T03:18:27;94176.94;;;16.51;100.00
11049;BME280;5577;42.706;23.160;2022-08-03T03:21:14;94188.41;;;16.52;100.00
11049;BME280;5577;42.706;23.160;2022-08-03T03:23:59;94190.66;;;16.39;100.00
11049;BME280;5577;42.706;23.160;2022-08-03T03:26:44;94205.13;;;16.31;100.00
11049;BME280;5577;42.706;23.160;2022-08-03T03:29:31;94207.41;;;16.40;100.00
11049;BME280;5577;42.706;23.160;2022-08-03T03:32:15;94202.84;;;16.37;100.00
11049;BME280;5577;42.706;23.160;2022-08-03T03:35:00;94217.38;;;16.43;100.00
11049;BME280;5577;42.706;23.160;2022-08-03T03:37:44;94206.31;;;16.41;100.00
11049;BME280;5577;42.706;23.160;2022-08-03T03:40:29;94195.25;;;16.42;100.00
11049;BME280;5577;42.706;23.160;2022-08-03T03:43:13;94211.28;;;16.46;100.00
11049;BME280;5577;42.706;23.160;2022-08-03T03:45:58;94210.16;;;16.50;100.00
11049;BME280;5577;42.706;23.160;2022-08-03T03:48:43;94209.75;;;16.45;100.00
11049;BME280;5577;42.706;23.160;2022-08-03T03:51:28;94215.88;;;16.59;100.00
11049;BME280;5577;42.706;23.160;2022-08-03T03:54:12;94221.22;;;16.66;100.00
11049;BME280;5577;42.706;23.160;2022-08-03T03:56:56;94222.00;;;16.67;100.00
11049;BME280;5577;42.706;23.160;2022-08-03T03:59:41;94228.88;;;16.78;100.00
11049;BME280;5577;42.706;23.160;2022-08-03T04:02:25;94217.41;;;16.92;100.00
11049;BME280;5577;42.706;23.160;2022-08-03T04:05:10;94220.44;;;17.04;100.00
11049;BME280;5577;42.706;23.160;2022-08-03T04:08:15;94207.84;;;17.19;100.00
11049;BME280;5577;42.706;23.160;2022-08-03T04:11:21;94206.31;;;17.25;100.00
11049;BME280;5577;42.706;23.160;2022-08-03T04:17:04;94223.81;;;17.61;100.00
11049;BME280;5577;42.706;23.160;2022-08-03T04:19:52;94223.06;;;17.64;100.00
11049;BME280;5577;42.706;23.160;2022-08-03T04:22:37;94219.59;;;17.74;100.00
11049;BME280;5577;42.706;23.160;2022-08-03T04:25:24;94220.31;;;17.82;100.00
11049;BME280;5577;42.706;23.160;2022-08-03T04:28:10;94217.25;;;17.87;100.00
11049;BME280;5577;42.706;23.160;2022-08-03T04:30:55;94212.22;;;17.96;100.00
11049;BME280;5577;42.706;23.160;2022-08-03T04:33:42;94214.03;;;18.13;100.00
11049;BME280;5577;42.706;23.160;2022-08-03T04:36:31;94219.41;;;18.13;100.00
11049;BME280;5577;42.706;23.160;2022-08-03T04:39:19;94224.31;;;18.25;100.00
11049;BME280;5577;42.706;23.160;2022-08-03T04:42:07;94225.03;;;18.39;100.00
11049;BME280;5577;42.706;23.160;2022-08-03T04:44:55;94223.03;;;18.50;100.00
11049;BME280;5577;42.706;23.160;2022-08-03T04:47:40;94233.03;;;18.46;100.00
11049;BME280;5577;42.706;23.160;2022-08-03T04:50:25;94232.53;;;18.62;100.00
11049;BME280;5577;42.706;23.160;2022-08-03T04:53:11;94187.84;;;18.48;100.00
11049;BME280;5577;42.706;23.160;2022-08-03T04:56:02;94224.75;;;18.81;100.00
11049;BME280;5577;42.706;23.160;2022-08-03T04:58:46;94213.25;;;18.81;100.00
11049;BME280;5577;42.706;23.160;2022-08-03T05:01:31;94244.94;;;18.96;100.00
11049;BME280;5577;42.706;23.160;2022-08-03T05:04:15;94239.09;;;19.05;100.00
11049;BME280;5577;42.706;23.160;2022-08-03T05:06:59;94245.13;;;19.19;100.00
11049;BME280;5577;42.706;23.160;2022-08-03T05:09:43;94246.19;;;19.32;100.00
11049;BME280;5577;42.706;23.160;2022-08-03T05:12:28;94253.31;;;19.49;100.00
11049;BME280;5577;42.706;23.160;2022-08-03T05:15:12;94236.47;;;19.45;100.00
11049;BME280;5577;42.706;23.160;2022-08-03T05:17:57;94247.44;;;19.61;100.00
11049;BME280;5577;42.706;23.160;2022-08-03T05:20:40;94243.19;;;19.64;100.00
11049;BME280;5577;42.706;23.160;2022-08-03T05:23:24;94253.09;;;19.70;100.00
11049;BME280;5577;42.706;23.160;2022-08-03T05:26:08;94251.81;;;19.82;100.00
11049;BME280;5577;42.706;23.160;2022-08-03T05:28:54;94255.19;;;19.90;100.00
11049;BME280;5577;42.706;23.160;2022-08-03T05:31:38;94251.31;;;19.94;100.00
11049;BME280;5577;42.706;23.160;2022-08-03T05:34:23;94246.38;;;19.89;100.00
11049;BME280;5577;42.706;23.160;2022-08-03T05:37:08;94252.75;;;20.02;100.00
11049;BME280;5577;42.706;23.160;2022-08-03T05:39:52;94255.25;;;20.20;100.00
11049;BME280;5577;42.706;23.160;2022-08-03T05:42:36;94266.19;;;20.36;100.00
11049;BME280;5577;42.706;23.160;2022-08-03T05:45:21;94264.22;;;20.40;100.00
11049;BME280;5577;42.706;23.160;2022-08-03T05:48:05;94265.22;;;20.49;100.00
11049;BME280;5577;42.706;23.160;2022-08-03T05:50:49;94256.22;;;20.63;100.00
11049;BME280;5577;42.706;23.160;2022-08-03T05:53:33;94264.13;;;20.73;100.00
11049;BME280;5577;42.706;23.160;2022-08-03T05:56:21;94258.94;;;20.86;100.00
11049;BME280;5577;42.706;23.160;2022-08-03T05:59:05;94252.75;;;20.89;100.00
11049;BME280;5577;42.706;23.160;2022-08-03T06:01:49;94254.59;;;20.95;100.00
11049;BME280;5577;42.706;23.160;2022-08-03T06:04:33;94263.13;;;20.90;100.00
11049;BME280;5577;42.706;23.160;2022-08-03T06:07:17;94275.22;;;21.05;100.00
11049;BME280;5577;42.706;23.160;2022-08-03T06:10:02;94276.81;;;21.26;100.00
11049;BME280;5577;42.706;23.160;2022-08-03T06:12:47;94227.31;;;21.20;100.00
11049;BME280;5577;42.706;23.160;2022-08-03T06:15:32;94278.66;;;21.55;100.00
11049;BME280;5577;42.706;23.160;2022-08-03T06:18:18;94279.53;;;21.72;100.00
11049;BME280;5577;42.706;23.160;2022-08-03T06:21:03;94271.03;;;21.73;100.00
11049;BME280;5577;42.706;23.160;2022-08-03T06:23:47;94272.91;;;21.76;100.00
11049;BME280;5577;42.706;23.160;2022-08-03T06:26:31;94280.84;;;21.83;100.00
11049;BME280;5577;42.706;23.160;2022-08-03T06:29:15;94283.63;;;21.99;100.00
11049;BME280;5577;42.706;23.160;2022-08-03T06:31:59;94285.69;;;22.11;100.00
11049;BME280;5577;42.706;23.160;2022-08-03T06:34:43;94276.22;;;22.23;100.00
11049;BME280;5577;42.706;23.160;2022-08-03T06:37:27;94248.53;;;22.22;100.00
11049;BME280;5577;42.706;23.160;2022-08-03T06:40:12;94274.66;;;22.45;100.00
11049;BME280;5577;42.706;23.160;2022-08-03T06:42:59;94274.66;;;22.45;100.00
11049;BME280;5577;42.706;23.160;2022-08-03T06:45:43;94278.59;;;22.60;100.00
11049;BME280;5577;42.706;23.160;2022-08-03T06:48:27;94252.09;;;22.55;100.00
11049;BME280;5577;42.706;23.160;2022-08-03T06:51:11;94271.53;;;22.82;100.00
11049;BME280;5577;42.706;23.160;2022-08-03T06:53:55;94277.81;;;23.11;100.00
11049;BME280;5577;42.706;23.160;2022-08-03T06:56:39;94285.13;;;23.30;100.00
11049;BME280;5577;42.706;23.160;2022-08-03T06:59:23;94271.88;;;23.36;100.00
11049;BME280;5577;42.706;23.160;2022-08-03T07:02:07;94273.06;;;23.35;100.00
11049;BME280;5577;42.706;23.160;2022-08-03T07:04:52;94276.44;;;23.39;100.00
11049;BME280;5577;42.706;23.160;2022-08-03T07:07:37;94282.06;;;23.44;100.00
11049;BME280;5577;42.706;23.160;2022-08-03T07:10:21;94279.28;;;23.64;100.00
11049;BME280;5577;42.706;23.160;2022-08-03T07:13:05;94264.97;;;23.63;100.00
11049;BME280;5577;42.706;23.160;2022-08-03T07:15:49;94268.41;;;23.80;100.00
11049;BME280;5577;42.706;23.160;2022-08-03T07:18:37;94269.59;;;23.95;100.00
11049;BME280;5577;42.706;23.160;2022-08-03T07:21:21;94281.50;;;23.97;100.00
11049;BME280;5577;42.706;23.160;2022-08-03T07:24:05;94270.59;;;24.01;100.00
11049;BME280;5577;42.706;23.160;2022-08-03T07:26:49;94277.16;;;24.16;100.00
11049;BME280;5577;42.706;23.160;2022-08-03T07:29:33;94279.03;;;24.31;100.00
11049;BME280;5577;42.706;23.160;2022-08-03T07:32:18;94279.72;;;24.48;100.00
11049;BME280;5577;42.706;23.160;2022-08-03T07:35:02;94282.44;;;24.60;100.00
11049;BME280;5577;42.706;23.160;2022-08-03T07:37:47;94280.09;;;24.75;95.26
11049;BME280;5577;42.706;23.160;2022-08-03T07:40:30;94283.50;;;24.91;92.89
11049;BME280;5577;42.706;23.160;2022-08-03T07:43:14;94283.38;;;24.82;89.14
11049;BME280;5577;42.706;23.160;2022-08-03T07:46:00;94288.28;;;24.59;86.88
11049;BME280;5577;42.706;23.160;2022-08-03T07:48:44;94283.47;;;24.79;88.72
11049;BME280;5577;42.706;23.160;2022-08-03T07:51:28;94280.13;;;25.00;86.91
11049;BME280;5577;42.706;23.160;2022-08-03T07:54:11;94285.22;;;25.11;84.45
11049;BME280;5577;42.706;23.160;2022-08-03T07:56:55;94278.06;;;25.29;85.00
11049;BME280;5577;42.706;23.160;2022-08-03T07:59:39;94281.31;;;25.49;86.87
11049;BME280;5577;42.706;23.160;2022-08-03T08:02:24;94288.44;;;25.56;84.44
11049;BME280;5577;42.706;23.160;2022-08-03T08:05:09;94249.56;;;24.99;81.12
11049;BME280;5577;42.706;23.160;2022-08-03T08:07:53;94278.63;;;25.37;82.40
11049;BME280;5577;42.706;23.160;2022-08-03T08:10:38;94279.97;;;25.54;83.60
11049;BME280;5577;42.706;23.160;2022-08-03T08:13:22;94295.88;;;25.77;78.79
11049;BME280;5577;42.706;23.160;2022-08-03T08:16:06;94285.94;;;26.08;81.35
11049;BME280;5577;42.706;23.160;2022-08-03T08:18:50;94284.69;;;26.21;80.62
11049;BME280;5577;42.706;23.160;2022-08-03T08:21:34;94289.47;;;26.17;74.58
11049;BME280;5577;42.706;23.160;2022-08-03T08:24:19;94291.22;;;26.11;73.04
11049;BME280;5577;42.706;23.160;2022-08-03T08:27:03;94287.13;;;26.07;73.52
11049;BME280;5577;42.706;23.160;2022-08-03T08:29:47;94286.59;;;26.33;73.28
11049;BME280;5577;42.706;23.160;2022-08-03T08:32:31;94296.94;;;26.47;71.20
11049;BME280;5577;42.706;23.160;2022-08-03T08:35:16;94277.50;;;26.70;76.82
11049;BME280;5577;42.706;23.160;2022-08-03T08:38:00;94279.91;;;26.68;67.23
11049;BME280;5577;42.706;23.160;2022-08-03T08:40:45;94275.13;;;26.81;69.55
11049;BME280;5577;42.706;23.160;2022-08-03T08:43:29;94276.94;;;27.15;70.83
11049;BME280;5577;42.706;23.160;2022-08-03T08:46:13;94274.47;;;27.38;68.15
11049;BME280;5577;42.706;23.160;2022-08-03T08:48:59;94279.31;;;27.43;66.28
11049;BME280;5577;42.706;23.160;2022-08-03T08:51:45;94250.06;;;27.17;65.73
11049;BME280;5577;42.706;23.160;2022-08-03T08:54:31;94275.69;;;27.37;63.16
11049;BME280;5577;42.706;23.160;2022-08-03T08:57:17;94271.47;;;27.45;61.51
11049;BME280;5577;42.706;23.160;2022-08-03T09:00:01;94243.69;;;27.59;60.61
11049;BME280;5577;42.706;23.160;2022-08-03T09:02:46;94268.56;;;28.07;58.52
11049;BME280;5577;42.706;23.160;2022-08-03T09:05:30;94269.31;;;28.25;56.37
11049;BME280;5577;42.706;23.160;2022-08-03T09:08:17;94262.97;;;28.01;55.35
11049;BME280;5577;42.706;23.160;2022-08-03T09:11:01;94269.16;;;28.11;53.35
11049;BME280;5577;42.706;23.160;2022-08-03T09:13:45;94265.34;;;28.35;52.12
11049;BME280;5577;42.706;23.160;2022-08-03T09:16:29;94268.84;;;28.63;50.86
11049;BME280;5577;42.706;23.160;2022-08-03T09:19:13;94263.72;;;28.56;49.59
11049;BME280;5577;42.706;23.160;2022-08-03T09:22:14;94263.00;;;28.97;51.08
11049;BME280;5577;42.706;23.160;2022-08-03T09:25:04;94268.19;;;29.27;49.58
11049;BME280;5577;42.706;23.160;2022-08-03T09:27:48;94254.28;;;29.49;50.90
11049;BME280;5577;42.706;23.160;2022-08-03T09:30:33;94260.16;;;29.56;49.77
11049;BME280;5577;42.706;23.160;2022-08-03T09:33:18;94261.28;;;29.73;51.02
11049;BME280;5577;42.706;23.160;2022-08-03T09:36:02;94264.72;;;29.59;47.03
11049;BME280;5577;42.706;23.160;2022-08-03T09:39:00;94260.63;;;29.22;48.19
11049;BME280;5577;42.706;23.160;2022-08-03T09:42:13;94262.34;;;29.43;48.16
11049;BME280;5577;42.706;23.160;2022-08-03T09:44:57;94257.31;;;29.51;46.16
11049;BME280;5577;42.706;23.160;2022-08-03T09:47:41;94267.44;;;29.27;46.22
11049;BME280;5577;42.706;23.160;2022-08-03T09:50:25;94257.41;;;29.65;46.65
11049;BME280;5577;42.706;23.160;2022-08-03T09:53:09;94249.47;;;29.91;45.95
11049;BME280;5577;42.706;23.160;2022-08-03T09:55:59;94252.91;;;30.24;47.48
11049;BME280;5577;42.706;23.160;2022-08-03T09:58:45;94251.09;;;30.21;45.16
11049;BME280;5577;42.706;23.160;2022-08-03T10:01:34;94253.47;;;30.28;44.44
11049;BME280;5577;42.706;23.160;2022-08-03T10:04:20;94239.81;;;30.57;46.17
11049;BME280;5577;42.706;23.160;2022-08-03T10:07:07;94243.72;;;30.94;48.58
11049;BME280;5577;42.706;23.160;2022-08-03T10:10:00;94234.97;;;31.25;45.17
11049;BME280;5577;42.706;23.160;2022-08-03T10:12:45;94235.84;;;31.02;46.70
11049;BME280;5577;42.706;23.160;2022-08-03T10:15:32;94233.19;;;31.07;42.17
11049;BME280;5577;42.706;23.160;2022-08-03T10:18:16;94225.03;;;29.73;43.22
11049;BME280;5577;42.706;23.160;2022-08-03T10:21:03;94230.22;;;30.09;44.16
11049;BME280;5577;42.706;23.160;2022-08-03T10:23:49;94229.94;;;30.07;44.89
11049;BME280;5577;42.706;23.160;2022-08-03T10:26:37;94239.28;;;30.15;44.24
11049;BME280;5577;42.706;23.160;2022-08-03T10:29:23;94233.97;;;29.97;43.51
11049;BME280;5577;42.706;23.160;2022-08-03T10:35:12;94227.72;;;28.93;44.75
11049;BME280;5577;42.706;23.160;2022-08-03T10:37:58;94230.38;;;29.11;46.05
11049;BME280;5577;42.706;23.160;2022-08-03T10:40:43;94216.94;;;29.08;45.93
11049;BME280;5577;42.706;23.160;2022-08-03T10:46:35;94228.00;;;29.60;45.45
11049;BME280;5577;42.706;23.160;2022-08-03T10:49:21;94228.69;;;29.14;46.76
11049;BME280;5577;42.706;23.160;2022-08-03T10:52:06;94212.81;;;29.12;47.24
11049;BME280;5577;42.706;23.160;2022-08-03T10:54:50;94215.59;;;29.03;45.82
11049;BME280;5577;42.706;23.160;2022-08-03T10:57:53;94197.16;;;28.48;46.27
11049;BME280;5577;42.706;23.160;2022-08-03T11:00:48;94211.16;;;28.64;46.72
11049;BME280;5577;42.706;23.160;2022-08-03T11:06:37;94211.09;;;29.94;44.73
11049;BME280;5577;42.706;23.160;2022-08-03T11:09:21;94206.84;;;29.46;43.90
11049;BME280;5577;42.706;23.160;2022-08-03T11:12:23;94202.06;;;29.41;44.20
11049;BME280;5577;42.706;23.160;2022-08-03T11:15:08;94211.84;;;29.24;44.46
11049;BME280;5577;42.706;23.160;2022-08-03T11:18:11;94202.94;;;29.71;44.51
11049;BME280;5577;42.706;23.160;2022-08-03T11:20:59;94195.38;;;30.04;44.42
11049;BME280;5577;42.706;23.160;2022-08-03T11:23:46;94197.72;;;29.96;47.15
11049;BME280;5577;42.706;23.160;2022-08-03T11:26:32;94190.81;;;30.25;45.49
11049;BME280;5577;42.706;23.160;2022-08-03T11:29:29;94200.31;;;30.15;47.20
11049;BME280;5577;42.706;23.160;2022-08-03T11:35:29;94211.72;;;29.19;48.79
11049;BME280;5577;42.706;23.160;2022-08-03T11:38:13;94210.53;;;28.69;51.32
11049;BME280;5577;42.706;23.160;2022-08-03T11:40:57;94195.03;;;28.16;53.68
11049;BME280;5577;42.706;23.160;2022-08-03T11:43:44;94160.84;;;27.24;55.28
11049;BME280;5577;42.706;23.160;2022-08-03T11:46:36;94198.91;;;27.24;56.75
11049;BME280;5577;42.706;23.160;2022-08-03T11:49:20;94201.84;;;26.99;57.10
11049;BME280;5577;42.706;23.160;2022-08-03T11:52:06;94217.47;;;26.77;55.18
11049;BME280;5577;42.706;23.160;2022-08-03T11:54:53;94212.03;;;26.56;54.80
11049;BME280;5577;42.706;23.160;2022-08-03T11:57:38;94210.59;;;26.33;54.04
11049;BME280;5577;42.706;23.160;2022-08-03T12:00:24;94212.63;;;26.20;52.74
11049;BME280;5577;42.706;23.160;2022-08-03T12:03:11;94211.91;;;26.07;54.22
11049;BME280;5577;42.706;23.160;2022-08-03T12:05:56;94207.50;;;26.01;55.08
11049;BME280;5577;42.706;23.160;2022-08-03T12:08:41;94200.88;;;26.02;57.68
11049;BME280;5577;42.706;23.160;2022-08-03T12:11:26;94202.75;;;25.92;56.45
11049;BME280;5577;42.706;23.160;2022-08-03T12:14:19;94199.97;;;25.83;57.13
11049;BME280;5577;42.706;23.160;2022-08-03T12:17:03;94201.34;;;25.88;58.02
11049;BME280;5577;42.706;23.160;2022-08-03T12:19:47;94190.50;;;25.88;58.93
11049;BME280;5577;42.706;23.160;2022-08-03T12:22:39;94194.41;;;25.87;60.73
11049;BME280;5577;42.706;23.160;2022-08-03T12:25:25;94179.31;;;25.98;60.07
11049;BME280;5577;42.706;23.160;2022-08-03T12:28:10;94180.44;;;26.10;62.04
11049;BME280;5577;42.706;23.160;2022-08-03T12:30:55;94181.69;;;26.18;57.06
11049;BME280;5577;42.706;23.160;2022-08-03T12:34:02;94177.81;;;26.28;57.04
11049;BME280;5577;42.706;23.160;2022-08-03T12:36:52;94185.06;;;26.31;60.41
11049;BME280;5577;42.706;23.160;2022-08-03T12:39:37;94173.50;;;26.39;61.24
11049;BME280;5577;42.706;23.160;2022-08-03T12:42:32;94183.97;;;26.50;61.09
11049;BME280;5577;42.706;23.160;2022-08-03T12:45:23;94176.91;;;26.22;64.76
11049;BME280;5577;42.706;23.160;2022-08-03T12:48:09;94174.66;;;26.29;64.70
11049;BME280;5577;42.706;23.160;2022-08-03T12:51:07;94172.97;;;26.23;64.97
11049;BME280;5577;42.706;23.160;2022-08-03T12:53:54;94171.22;;;26.29;64.86
11049;BME280;5577;42.706;23.160;2022-08-03T12:57:01;94175.16;;;26.37;64.38
11049;BME280;5577;42.706;23.160;2022-08-03T12:59:45;94170.78;;;26.39;64.80
11049;BME280;5577;42.706;23.160;2022-08-03T13:02:31;94169.91;;;26.42;64.10
11049;BME280;5577;42.706;23.160;2022-08-03T13:05:15;94162.09;;;26.44;63.95
11049;BME280;5577;42.706;23.160;2022-08-03T13:07:59;94168.88;;;26.49;66.74
11049;BME280;5577;42.706;23.160;2022-08-03T13:10:43;94161.38;;;26.53;71.09
11049;BME280;5577;42.706;23.160;2022-08-03T13:13:38;94113.31;;;26.32;72.85
11049;BME280;5577;42.706;23.160;2022-08-03T13:16:23;94160.00;;;26.57;75.35
11049;BME280;5577;42.706;23.160;2022-08-03T13:19:07;94152.00;;;26.54;76.89
11049;BME280;5577;42.706;23.160;2022-08-03T13:21:53;94152.78;;;26.54;75.08
11049;BME280;5577;42.706;23.160;2022-08-03T13:24:37;94146.72;;;26.50;76.46
11049;BME280;5577;42.706;23.160;2022-08-03T13:27:23;94153.44;;;26.67;74.65
11049;BME280;5577;42.706;23.160;2022-08-03T13:30:08;94164.19;;;26.71;73.58
11049;BME280;5577;42.706;23.160;2022-08-03T13:32:52;94155.16;;;26.74;74.61
11049;BME280;5577;42.706;23.160;2022-08-03T13:35:36;94149.72;;;26.74;75.82
11049;BME280;5577;42.706;23.160;2022-08-03T13:38:20;94156.94;;;26.77;75.71
11049;BME280;5577;42.706;23.160;2022-08-03T13:41:04;94153.50;;;26.85;75.42
11049;BME280;5577;42.706;23.160;2022-08-03T13:43:48;94153.66;;;26.82;72.87
11049;BME280;5577;42.706;23.160;2022-08-03T13:46:32;94147.63;;;26.87;69.01
11049;BME280;5577;42.706;23.160;2022-08-03T13:49:17;94147.50;;;26.90;72.48
11049;BME280;5577;42.706;23.160;2022-08-03T13:52:02;94147.22;;;26.97;73.27
11049;BME280;5577;42.706;23.160;2022-08-03T13:54:46;94142.84;;;27.00;74.03
11049;BME280;5577;42.706;23.160;2022-08-03T13:57:29;94141.31;;;26.99;76.77
11049;BME280;5577;42.706;23.160;2022-08-03T14:00:15;94143.44;;;26.95;73.36
11049;BME280;5577;42.706;23.160;2022-08-03T14:03:01;94147.19;;;26.88;73.23
11049;BME280;5577;42.706;23.160;2022-08-03T14:05:45;94148.38;;;26.87;74.53
11049;BME280;5577;42.706;23.160;2022-08-03T14:08:30;94141.75;;;26.88;76.73
11049;BME280;5577;42.706;23.160;2022-08-03T14:11:14;94145.94;;;26.80;79.18
11049;BME280;5577;42.706;23.160;2022-08-03T14:13:58;94145.50;;;26.82;77.48
11049;BME280;5577;42.706;23.160;2022-08-03T14:16:42;94146.41;;;26.79;77.84
11049;BME280;5577;42.706;23.160;2022-08-03T14:19:26;94150.16;;;26.72;80.44
11049;BME280;5577;42.706;23.160;2022-08-03T14:22:10;94149.00;;;26.82;81.14
11049;BME280;5577;42.706;23.160;2022-08-03T14:24:54;94141.44;;;26.86;86.63
11049;BME280;5577;42.706;23.160;2022-08-03T14:27:38;94145.50;;;26.91;84.57
11049;BME280;5577;42.706;23.160;2022-08-03T14:30:22;94142.06;;;26.90;86.58
11049;BME280;5577;42.706;23.160;2022-08-03T14:33:06;94140.03;;;26.73;87.16
11049;BME280;5577;42.706;23.160;2022-08-03T14:35:50;94143.69;;;26.79;88.30
11049;BME280;5577;42.706;23.160;2022-08-03T14:38:35;94141.13;;;26.84;83.12
11049;BME280;5577;42.706;23.160;2022-08-03T14:41:18;94119.34;;;26.66;82.42
11049;BME280;5577;42.706;23.160;2022-08-03T14:44:03;94135.81;;;26.72;81.09
11049;BME280;5577;42.706;23.160;2022-08-03T14:46:47;94139.28;;;26.72;79.90
11049;BME280;5577;42.706;23.160;2022-08-03T14:49:31;94136.25;;;26.61;78.61
11049;BME280;5577;42.706;23.160;2022-08-03T14:52:15;94139.06;;;26.58;76.60
11049;BME280;5577;42.706;23.160;2022-08-03T14:55:00;94145.19;;;26.49;76.54
11049;BME280;5577;42.706;23.160;2022-08-03T14:57:44;94138.66;;;26.38;76.92
11049;BME280;5577;42.706;23.160;2022-08-03T15:00:28;94140.81;;;26.43;76.84